createdAt,value
2023-03-28T00:02:06.565Z,100.00
2023-03-28T00:04:35.009Z,100.00
2023-03-28T00:07:04.024Z,100.00
2023-03-28T00:09:33.037Z,100.00
2023-03-28T00:12:01.486Z,100.00
2023-03-28T00:14:30.007Z,100.00
2023-03-28T00:17:01.675Z,100.00
2023-03-28T00:19:33.174Z,100.00
2023-03-28T00:22:01.398Z,100.00
2023-03-28T00:24:29.843Z,100.00
2023-03-28T00:27:00.780Z,100.00
2023-03-28T00:29:30.315Z,100.00
2023-03-28T00:31:58.783Z,100.00
2023-03-28T00:34:27.520Z,100.00
2023-03-28T00:36:55.745Z,100.00
2023-03-28T00:39:27.908Z,100.00
2023-03-28T00:41:57.655Z,100.00
2023-03-28T00:44:41.901Z,100.00
2023-03-28T00:47:28.463Z,100.00
2023-03-28T00:50:27.596Z,100.00
2023-03-28T00:53:06.644Z,100.00
2023-03-28T00:55:35.920Z,100.00
2023-03-28T00:58:11.397Z,100.00
2023-03-28T01:00:46.984Z,100.00
2023-03-28T01:03:19.374Z,100.00
2023-03-28T01:05:51.446Z,100.00
2023-03-28T01:08:26.380Z,100.00
2023-03-28T01:10:55.524Z,100.00
2023-03-28T01:13:32.095Z,100.00
2023-03-28T01:16:03.652Z,100.00
2023-03-28T01:18:35.119Z,100.00
2023-03-28T01:21:06.644Z,100.00
2023-03-28T01:23:41.652Z,100.00
2023-03-28T01:26:39.488Z,100.00
2023-03-28T01:29:20.275Z,100.00
2023-03-28T01:32:15.603Z,100.00
2023-03-28T01:35:38.055Z,100.00
2023-03-28T01:38:47.597Z,100.00
2023-03-28T01:41:17.310Z,100.00
2023-03-28T01:44:18.584Z,100.00
2023-03-28T01:47:02.300Z,100.00
2023-03-28T01:49:47.339Z,100.00
2023-03-28T01:52:28.202Z,100.00
2023-03-28T01:55:05.792Z,100.00
2023-03-28T01:57:56.931Z,100.00
2023-03-28T02:00:34.318Z,100.00
2023-03-28T02:03:11.965Z,100.00
2023-03-28T02:05:50.801Z,100.00
2023-03-28T02:08:22.168Z,100.00
2023-03-28T02:11:02.698Z,100.00
2023-03-28T02:13:57.111Z,100.00
2023-03-28T02:16:50.121Z,100.00
2023-03-28T02:19:38.833Z,100.00
2023-03-28T02:22:15.788Z,100.00
2023-03-28T02:24:56.550Z,100.00
2023-03-28T02:27:52.045Z,100.00
2023-03-28T02:30:36.996Z,100.00
2023-03-28T02:33:11.283Z,100.00
2023-03-28T02:36:08.415Z,100.00
2023-03-28T02:39:01.075Z,100.00
2023-03-28T02:41:29.187Z,100.00
2023-03-28T02:44:22.711Z,100.00
2023-03-28T02:47:02.058Z,100.00
2023-03-28T02:49:49.632Z,100.00
2023-03-28T02:52:37.760Z,100.00
2023-03-28T02:55:16.586Z,100.00
2023-03-28T02:58:08.374Z,100.00
2023-03-28T03:00:39.814Z,100.00
2023-03-28T03:03:10.679Z,100.00
2023-03-28T03:05:38.908Z,100.00
2023-03-28T03:08:07.907Z,100.00
2023-03-28T03:10:36.639Z,100.00
2023-03-28T03:13:04.930Z,100.00
2023-03-28T03:15:35.795Z,100.00
2023-03-28T03:18:24.429Z,99.84
2023-03-28T03:20:52.794Z,99.44
2023-03-28T03:23:21.843Z,98.98
2023-03-28T03:25:52.105Z,99.56
2023-03-28T03:28:28.273Z,99.70
2023-03-28T03:30:56.714Z,100.00
2023-03-28T03:33:41.830Z,100.00
2023-03-28T03:36:12.954Z,100.00
2023-03-28T03:38:41.786Z,100.00
2023-03-28T03:41:10.450Z,100.00
2023-03-28T03:43:39.850Z,100.00
2023-03-28T03:46:08.217Z,100.00
2023-03-28T03:48:36.617Z,100.00
2023-03-28T03:51:05.307Z,100.00
2023-03-28T03:53:36.989Z,100.00
2023-03-28T03:56:10.415Z,100.00
2023-03-28T03:58:53.302Z,100.00
2023-03-28T04:01:26.062Z,100.00
2023-03-28T04:03:57.234Z,100.00
2023-03-28T04:06:30.052Z,100.00
2023-03-28T04:08:58.678Z,100.00
2023-03-28T04:11:47.230Z,100.00
2023-03-28T04:14:17.357Z,100.00
2023-03-28T04:16:46.755Z,100.00
2023-03-28T04:19:15.862Z,99.87
2023-03-28T04:21:48.864Z,99.76
2023-03-28T04:24:21.155Z,99.55
2023-03-28T04:26:58.758Z,100.00
2023-03-28T04:29:33.434Z,100.00
2023-03-28T04:32:21.529Z,100.00
2023-03-28T04:35:05.088Z,100.00
2023-03-28T04:37:33.534Z,99.50
2023-03-28T04:40:10.947Z,99.24
2023-03-28T04:42:47.796Z,98.45
2023-03-28T04:45:20.061Z,96.19
2023-03-28T04:47:49.531Z,92.39
2023-03-28T04:50:20.100Z,90.94
2023-03-28T04:52:48.348Z,89.49
2023-03-28T04:55:17.941Z,88.50
2023-03-28T04:57:47.517Z,86.80
2023-03-28T05:00:17.343Z,85.89
2023-03-28T05:03:07.259Z,84.72
2023-03-28T05:05:41.584Z,83.04
2023-03-28T05:08:14.446Z,82.72
2023-03-28T05:10:44.746Z,82.62
2023-03-28T05:13:14.137Z,82.13
2023-03-28T05:15:48.071Z,82.21
2023-03-28T05:18:42.936Z,81.37
2023-03-28T05:21:12.029Z,80.05
2023-03-28T05:23:40.425Z,79.28
2023-03-28T05:26:16.266Z,77.95
2023-03-28T05:28:45.620Z,77.08
2023-03-28T05:31:14.101Z,77.15
2023-03-28T05:33:42.850Z,76.15
2023-03-28T05:36:23.618Z,76.49
2023-03-28T05:38:52.093Z,75.70
2023-03-28T05:41:23.353Z,76.18
2023-03-28T05:43:51.829Z,74.85
2023-03-28T05:46:41.916Z,73.33
2023-03-28T05:49:12.137Z,72.80
2023-03-28T05:51:40.929Z,72.47
2023-03-28T05:54:09.170Z,74.35
2023-03-28T05:56:38.177Z,72.65
2023-03-28T05:59:07.112Z,71.68
2023-03-28T06:01:40.788Z,72.02
2023-03-28T06:04:10.896Z,71.47
2023-03-28T06:06:39.515Z,71.28
2023-03-28T06:09:08.920Z,71.81
2023-03-28T06:11:47.666Z,70.52
2023-03-28T06:14:16.347Z,69.39
2023-03-28T06:16:45.364Z,69.06
2023-03-28T06:19:18.269Z,68.55
2023-03-28T06:21:53.816Z,67.34
2023-03-28T06:24:22.307Z,64.97
2023-03-28T06:26:51.874Z,66.70
2023-03-28T06:29:22.638Z,63.60
2023-03-28T06:31:59.287Z,62.61
2023-03-28T06:34:27.743Z,62.78
2023-03-28T06:37:01.989Z,63.19
2023-03-28T06:39:42.664Z,61.76
2023-03-28T06:42:11.011Z,60.28
2023-03-28T06:44:47.305Z,59.37
2023-03-28T06:47:33.348Z,58.98
2023-03-28T06:50:02.162Z,58.46
2023-03-28T06:52:40.592Z,57.90
2023-03-28T06:55:09.783Z,56.94
2023-03-28T06:57:38.212Z,56.76
2023-03-28T07:00:29.576Z,56.17
2023-03-28T07:03:18.124Z,56.40
2023-03-28T07:05:46.924Z,56.27
2023-03-28T07:08:15.515Z,55.26
2023-03-28T07:10:44.097Z,53.99
2023-03-28T07:13:13.294Z,54.04
2023-03-28T07:16:04.286Z,53.38
2023-03-28T07:18:32.997Z,51.77
2023-03-28T07:21:10.662Z,51.85
2023-03-28T07:23:41.748Z,51.78
2023-03-28T07:26:13.439Z,51.08
2023-03-28T07:28:42.085Z,51.46
2023-03-28T07:31:10.671Z,51.29
2023-03-28T07:33:39.562Z,49.87
2023-03-28T07:36:15.859Z,50.45
2023-03-28T07:38:48.929Z,49.59
2023-03-28T07:41:18.546Z,51.04
2023-03-28T07:43:46.822Z,51.51
2023-03-28T07:46:16.537Z,50.24
2023-03-28T07:48:46.733Z,50.05
2023-03-28T07:51:16.091Z,48.49
2023-03-28T07:53:44.477Z,47.84
2023-03-28T07:56:13.207Z,49.21
2023-03-28T07:59:13.898Z,49.77
2023-03-28T08:01:44.360Z,50.42
2023-03-28T08:04:13.840Z,49.42
2023-03-28T08:07:12.963Z,48.95
2023-03-28T08:09:41.792Z,50.26
2023-03-28T08:12:37.812Z,49.20
2023-03-28T08:15:07.484Z,50.28
2023-03-28T08:17:36.380Z,47.09
2023-03-28T08:20:09.768Z,48.96
2023-03-28T08:23:17.963Z,48.46
2023-03-28T08:26:07.388Z,47.15
2023-03-28T08:28:38.659Z,46.97
2023-03-28T08:31:16.247Z,47.25
2023-03-28T08:33:48.719Z,47.21
2023-03-28T08:36:17.627Z,46.51
2023-03-28T08:38:47.460Z,47.58
2023-03-28T08:41:33.898Z,46.75
2023-03-28T08:44:22.329Z,46.36
2023-03-28T08:46:58.387Z,47.92
2023-03-28T08:49:27.652Z,47.25
2023-03-28T08:52:02.699Z,47.91
2023-03-28T08:54:43.183Z,47.25
2023-03-28T08:57:21.852Z,47.61
2023-03-28T09:00:24.252Z,47.62
2023-03-28T09:02:52.813Z,47.26
2023-03-28T09:05:50.309Z,47.80
2023-03-28T09:08:31.396Z,47.10
2023-03-28T09:11:25.669Z,46.39
2023-03-28T09:14:12.406Z,46.60
2023-03-28T09:17:12.513Z,44.84
2023-03-28T09:20:11.582Z,45.39
2023-03-28T09:23:36.558Z,45.13
2023-03-28T09:26:37.874Z,44.88
2023-03-28T09:29:24.940Z,44.98
2023-03-28T09:32:03.544Z,46.13
2023-03-28T09:34:39.599Z,45.70
2023-03-28T09:37:30.064Z,44.52
2023-03-28T09:40:14.834Z,44.97
2023-03-28T09:43:14.489Z,44.43
2023-03-28T09:46:09.887Z,45.74
2023-03-28T09:48:57.380Z,46.46
2023-03-28T09:51:27.864Z,46.82
2023-03-28T09:53:56.114Z,47.48
2023-03-28T09:56:30.005Z,48.17
2023-03-28T09:59:05.629Z,47.12
2023-03-28T10:01:44.259Z,47.24
2023-03-28T10:04:39.244Z,48.29
2023-03-28T10:07:13.812Z,47.15
2023-03-28T10:09:51.984Z,48.17
2023-03-28T10:12:36.988Z,47.55
2023-03-28T10:15:09.053Z,46.64
2023-03-28T10:18:21.698Z,48.59
2023-03-28T10:21:27.698Z,48.37
2023-03-28T10:24:08.164Z,49.38
2023-03-28T10:26:37.571Z,49.00
2023-03-28T10:29:08.666Z,48.45
2023-03-28T10:31:39.710Z,48.61
2023-03-28T10:34:33.728Z,49.18
2023-03-28T10:37:29.140Z,48.89
2023-03-28T10:40:20.602Z,49.52
2023-03-28T10:43:16.030Z,49.81
2023-03-28T10:46:17.808Z,51.00
2023-03-28T10:49:06.370Z,50.84
2023-03-28T10:51:38.928Z,51.04
2023-03-28T10:54:37.933Z,50.56
2023-03-28T10:57:31.540Z,50.78
2023-03-28T11:00:07.552Z,50.24
2023-03-28T11:02:55.312Z,49.77
2023-03-28T11:05:37.614Z,50.36
2023-03-28T11:08:36.426Z,49.17
2023-03-28T11:11:42.476Z,51.80
2023-03-28T11:14:51.734Z,50.53
2023-03-28T11:17:29.252Z,50.20
2023-03-28T11:20:41.834Z,50.89
2023-03-28T11:23:22.905Z,53.35
2023-03-28T11:26:14.811Z,53.79
2023-03-28T11:29:11.057Z,54.58
2023-03-28T11:32:04.853Z,54.54
2023-03-28T11:34:42.197Z,53.85
2023-03-28T11:37:23.405Z,52.72
2023-03-28T11:40:28.462Z,52.66
2023-03-28T11:43:06.534Z,52.35
2023-03-28T11:45:52.030Z,52.70
2023-03-28T11:48:53.698Z,51.44
2023-03-28T11:51:43.285Z,52.33
2023-03-28T11:54:23.953Z,52.70
2023-03-28T11:57:06.098Z,51.86
2023-03-28T11:59:56.198Z,51.87
2023-03-28T12:02:28.328Z,52.61
2023-03-28T12:05:33.254Z,54.28
2023-03-28T12:08:11.227Z,61.14
2023-03-28T12:10:42.748Z,69.54
2023-03-28T12:13:53.209Z,72.30
2023-03-28T12:16:41.865Z,74.86
2023-03-28T12:19:15.992Z,73.13
2023-03-28T12:21:54.463Z,72.03
2023-03-28T12:24:54.855Z,71.31
2023-03-28T12:27:48.854Z,70.89
2023-03-28T12:30:30.141Z,70.07
2023-03-28T12:33:32.647Z,69.17
2023-03-28T12:36:25.800Z,68.67
2023-03-28T12:39:00.802Z,67.63
2023-03-28T12:41:40.221Z,67.53
2023-03-28T12:44:24.728Z,68.22
2023-03-28T12:47:16.977Z,70.37
2023-03-28T12:49:59.921Z,77.35
2023-03-28T12:52:32.651Z,82.15
2023-03-28T12:55:08.098Z,85.27
2023-03-28T12:57:47.029Z,87.22
2023-03-28T13:00:48.181Z,87.93
2023-03-28T13:03:45.870Z,88.12
2023-03-28T13:06:28.927Z,85.13
2023-03-28T13:09:00.052Z,85.87
2023-03-28T13:11:53.538Z,84.83
2023-03-28T13:14:38.408Z,81.19
2023-03-28T13:17:23.352Z,78.40
2023-03-28T13:20:10.909Z,78.37
2023-03-28T13:22:54.824Z,75.35
2023-03-28T13:25:27.710Z,75.38
2023-03-28T13:28:00.591Z,76.24
2023-03-28T13:30:31.496Z,74.00
2023-03-28T13:33:04.024Z,72.01
2023-03-28T13:35:45.341Z,71.10
2023-03-28T13:38:23.713Z,70.37
2023-03-28T13:40:56.544Z,68.26
2023-03-28T13:43:33.809Z,65.82
2023-03-28T13:46:08.584Z,65.20
2023-03-28T13:48:49.289Z,64.66
2023-03-28T13:51:26.691Z,64.43
2023-03-28T13:53:55.188Z,61.96
2023-03-28T13:56:32.713Z,60.38
2023-03-28T13:59:06.075Z,61.36
2023-03-28T14:01:42.271Z,60.65
2023-03-28T14:04:21.078Z,59.94
2023-03-28T14:06:52.344Z,57.69
2023-03-28T14:09:28.597Z,56.00
2023-03-28T14:12:24.517Z,57.19
2023-03-28T14:14:58.681Z,58.92
2023-03-28T14:17:34.032Z,56.80
2023-03-28T14:20:06.324Z,55.56
2023-03-28T14:22:49.350Z,55.43
2023-03-28T14:25:26.447Z,54.52
2023-03-28T14:27:57.163Z,52.89
2023-03-28T14:30:38.143Z,50.90
2023-03-28T14:33:18.849Z,50.28
2023-03-28T14:36:03.158Z,50.37
2023-03-28T14:38:35.312Z,48.50
2023-03-28T14:41:09.269Z,47.40
2023-03-28T14:43:37.737Z,47.24
2023-03-28T14:46:09.393Z,48.46
2023-03-28T14:48:39.504Z,47.75
2023-03-28T14:51:11.840Z,46.80
2023-03-28T14:53:47.521Z,47.38
2023-03-28T14:56:26.640Z,46.24
2023-03-28T14:59:02.522Z,45.31
2023-03-28T15:01:33.989Z,45.90
2023-03-28T15:04:08.292Z,46.34
2023-03-28T15:06:39.575Z,47.09
2023-03-28T15:09:40.396Z,48.19
2023-03-28T15:12:09.293Z,46.94
2023-03-28T15:14:45.766Z,47.48
2023-03-28T15:17:20.145Z,47.53
2023-03-28T15:19:58.638Z,48.71
2023-03-28T15:22:29.024Z,48.42
2023-03-28T15:24:58.575Z,48.22
2023-03-28T15:27:36.165Z,50.25
2023-03-28T15:30:14.668Z,54.44
2023-03-28T15:32:43.892Z,58.73
2023-03-28T15:35:29.293Z,65.88
2023-03-28T15:38:05.683Z,69.63
2023-03-28T15:41:07.860Z,72.17
2023-03-28T15:43:56.102Z,76.36
2023-03-28T15:46:33.240Z,77.84
2023-03-28T15:49:05.638Z,79.79
2023-03-28T15:52:00.056Z,82.76
2023-03-28T15:54:31.776Z,86.48
2023-03-28T15:57:02.665Z,89.36
2023-03-28T15:59:51.154Z,91.40
2023-03-28T16:02:25.213Z,91.37
2023-03-28T16:04:57.911Z,92.40
2023-03-28T16:07:27.212Z,98.89
2023-03-28T16:09:56.007Z,100.00
2023-03-28T16:12:26.170Z,100.00
2023-03-28T16:15:14.394Z,100.00
2023-03-28T16:17:49.083Z,100.00
2023-03-28T16:20:29.559Z,100.00
2023-03-28T16:23:01.912Z,100.00
2023-03-28T16:25:30.134Z,100.00
2023-03-28T16:27:58.312Z,100.00
2023-03-28T16:30:40.590Z,100.00
2023-03-28T16:33:09.699Z,100.00
2023-03-28T16:35:40.071Z,100.00
2023-03-28T16:38:11.713Z,100.00
2023-03-28T16:40:40.175Z,100.00
2023-03-28T16:43:08.842Z,100.00
2023-03-28T16:45:38.220Z,100.00
2023-03-28T16:48:07.258Z,100.00
2023-03-28T16:50:35.844Z,100.00
2023-03-28T16:53:06.078Z,100.00
2023-03-28T16:55:34.428Z,100.00
2023-03-28T16:58:03.322Z,100.00
2023-03-28T17:00:45.021Z,100.00
2023-03-28T17:03:13.440Z,100.00
2023-03-28T17:05:41.880Z,100.00
2023-03-28T17:08:13.291Z,100.00
2023-03-28T17:10:43.381Z,100.00
2023-03-28T17:13:11.734Z,100.00
2023-03-28T17:15:40.116Z,100.00
2023-03-28T17:18:08.318Z,100.00
2023-03-28T17:20:37.141Z,100.00
2023-03-28T17:23:05.471Z,100.00
2023-03-28T17:25:41.599Z,100.00
2023-03-28T17:28:17.066Z,100.00
2023-03-28T17:30:45.833Z,100.00
2023-03-28T17:33:14.240Z,100.00
2023-03-28T17:35:42.970Z,100.00
2023-03-28T17:38:11.631Z,100.00
2023-03-28T17:40:41.124Z,100.00
2023-03-28T17:43:11.759Z,100.00
2023-03-28T17:45:39.928Z,100.00
2023-03-28T17:48:10.514Z,100.00
2023-03-28T17:50:39.389Z,100.00
2023-03-28T17:53:07.739Z,100.00
2023-03-28T17:55:36.442Z,100.00
2023-03-28T17:58:05.215Z,100.00
2023-03-28T18:00:33.697Z,100.00
2023-03-28T18:03:02.517Z,100.00
2023-03-28T18:05:42.058Z,100.00
2023-03-28T18:08:10.429Z,100.00
2023-03-28T18:10:42.577Z,100.00
2023-03-28T18:13:11.574Z,100.00
2023-03-28T18:15:42.250Z,100.00
2023-03-28T18:18:13.035Z,100.00
2023-03-28T18:20:44.601Z,100.00
2023-03-28T18:23:13.497Z,100.00
2023-03-28T18:25:41.875Z,100.00
2023-03-28T18:28:10.253Z,100.00
2023-03-28T18:30:40.756Z,100.00
2023-03-28T18:33:12.137Z,100.00
2023-03-28T18:35:42.279Z,100.00
2023-03-28T18:38:13.616Z,100.00
2023-03-28T18:40:42.301Z,100.00
2023-03-28T18:43:11.206Z,100.00
2023-03-28T18:45:42.695Z,100.00
2023-03-28T18:48:11.678Z,100.00
2023-03-28T18:50:40.029Z,100.00
2023-03-28T18:53:08.607Z,100.00
2023-03-28T18:55:37.914Z,100.00
2023-03-28T18:58:08.440Z,100.00
2023-03-28T19:00:36.719Z,100.00
2023-03-28T19:03:05.705Z,100.00
2023-03-28T19:05:35.625Z,100.00
2023-03-28T19:08:04.473Z,100.00
2023-03-28T19:10:32.906Z,100.00
2023-03-28T19:13:01.658Z,98.59
2023-03-28T19:15:30.176Z,98.72
2023-03-28T19:18:02.286Z,96.86
2023-03-28T19:20:32.260Z,95.39
2023-03-28T19:23:01.356Z,94.06
2023-03-28T19:25:29.841Z,93.72
2023-03-28T19:27:58.428Z,92.43
2023-03-28T19:30:26.950Z,93.39
2023-03-28T19:32:55.214Z,94.12
2023-03-28T19:35:23.592Z,95.31
2023-03-28T19:37:51.845Z,96.20
2023-03-28T19:40:19.937Z,95.39
2023-03-28T19:42:48.212Z,98.24
2023-03-28T19:45:16.631Z,98.24
2023-03-28T19:47:44.823Z,96.63
2023-03-28T19:50:13.239Z,95.92
2023-03-28T19:52:42.766Z,92.93
2023-03-28T19:55:11.432Z,94.66
2023-03-28T19:57:39.824Z,90.70
2023-03-28T20:00:09.680Z,87.63
2023-03-28T20:02:44.225Z,88.99
2023-03-28T20:05:12.778Z,90.23
2023-03-28T20:07:41.240Z,89.91
2023-03-28T20:10:09.932Z,90.94
2023-03-28T20:12:40.132Z,94.04
2023-03-28T20:15:10.762Z,90.99
2023-03-28T20:17:39.078Z,93.06
2023-03-28T20:20:09.527Z,96.77
2023-03-28T20:22:37.948Z,96.53
2023-03-28T20:25:07.280Z,92.98
2023-03-28T20:27:36.479Z,93.92
2023-03-28T20:30:06.187Z,94.14
2023-03-28T20:32:34.426Z,94.54
2023-03-28T20:35:02.728Z,96.65
2023-03-28T20:37:32.355Z,100.00
2023-03-28T20:40:10.938Z,99.99
2023-03-28T20:42:40.989Z,98.43
2023-03-28T20:45:14.158Z,97.45
2023-03-28T20:47:43.159Z,92.25
2023-03-28T20:50:11.752Z,88.23
2023-03-28T20:52:40.107Z,91.35
2023-03-28T20:55:10.279Z,92.94
2023-03-28T20:57:42.522Z,92.16
2023-03-28T21:00:14.926Z,90.99
2023-03-28T21:02:43.457Z,90.95
2023-03-28T21:05:12.722Z,90.49
2023-03-28T21:07:41.271Z,89.97
2023-03-28T21:10:10.147Z,93.43
2023-03-28T21:12:39.153Z,91.15
2023-03-28T21:15:08.674Z,96.27
2023-03-28T21:17:37.398Z,96.94
2023-03-28T21:20:10.197Z,95.47
2023-03-28T21:22:38.659Z,92.84
2023-03-28T21:25:08.134Z,94.82
2023-03-28T21:27:37.134Z,96.56
2023-03-28T21:30:08.166Z,99.43
2023-03-28T21:32:36.863Z,97.83
2023-03-28T21:35:05.742Z,99.89
2023-03-28T21:37:33.917Z,98.49
2023-03-28T21:40:02.411Z,95.51
2023-03-28T21:42:31.123Z,93.61
2023-03-28T21:44:59.260Z,92.92
2023-03-28T21:47:27.526Z,93.00
2023-03-28T21:49:55.821Z,99.49
2023-03-28T21:52:23.994Z,99.07
2023-03-28T21:54:52.300Z,95.64
2023-03-28T21:57:20.808Z,95.55
2023-03-28T21:59:49.284Z,93.63
2023-03-28T22:02:18.179Z,92.05
2023-03-28T22:04:47.321Z,91.87
2023-03-28T22:07:16.564Z,92.33
2023-03-28T22:09:44.813Z,91.88
2023-03-28T22:12:15.014Z,91.43
2023-03-28T22:14:43.211Z,89.87
2023-03-28T22:17:11.802Z,89.51
2023-03-28T22:19:40.136Z,89.66
2023-03-28T22:22:08.456Z,89.37
2023-03-28T22:24:37.654Z,89.06
2023-03-28T22:27:06.157Z,88.54
2023-03-28T22:29:34.319Z,89.08
2023-03-28T22:32:02.754Z,87.76
2023-03-28T22:34:30.997Z,86.96
2023-03-28T22:36:59.253Z,86.80
2023-03-28T22:39:27.441Z,86.00
2023-03-28T22:41:55.709Z,86.42
2023-03-28T22:44:26.892Z,86.35
2023-03-28T22:47:02.202Z,85.78
2023-03-28T22:49:34.180Z,84.10
2023-03-28T22:52:02.651Z,82.98
2023-03-28T22:54:32.820Z,82.24
2023-03-28T22:57:04.039Z,81.78
2023-03-28T22:59:33.213Z,81.41
2023-03-28T23:02:01.433Z,82.91
2023-03-28T23:04:29.877Z,82.56
2023-03-28T23:06:58.867Z,79.10
2023-03-28T23:09:28.031Z,77.28
2023-03-28T23:11:56.652Z,77.57
2023-03-28T23:14:24.836Z,79.20
2023-03-28T23:16:53.208Z,80.92
2023-03-28T23:19:22.750Z,82.49
2023-03-28T23:21:50.898Z,84.56
2023-03-28T23:24:19.349Z,85.53
2023-03-28T23:26:47.550Z,87.17
2023-03-28T23:29:16.250Z,86.74
2023-03-28T23:31:44.658Z,86.68
2023-03-28T23:34:13.304Z,85.54
2023-03-28T23:36:41.493Z,84.28
2023-03-28T23:39:11.229Z,84.70
2023-03-28T23:41:41.209Z,84.46
2023-03-28T23:44:09.900Z,84.34
2023-03-28T23:46:38.892Z,85.35
2023-03-28T23:49:07.128Z,86.49
2023-03-28T23:51:35.998Z,86.05
2023-03-28T23:54:04.353Z,85.17
2023-03-28T23:56:32.927Z,86.01
2023-03-28T23:59:01.204Z,85.57
